createdAt,value
2022-12-27T00:02:28.163Z,98988.30
2022-12-27T00:07:35.487Z,98987.91
2022-12-27T00:12:43.203Z,98975.46
2022-12-27T00:17:51.183Z,98973.77
2022-12-27T00:23:02.720Z,98965.80
2022-12-27T00:28:10.415Z,98959.53
2022-12-27T00:33:18.215Z,98952.44
2022-12-27T00:38:25.727Z,98952.36
2022-12-27T00:43:33.971Z,98953.61
2022-12-27T00:48:42.199Z,98951.27
2022-12-27T00:53:50.086Z,98947.48
2022-12-27T00:58:58.874Z,98938.91
2022-12-27T01:04:07.437Z,98926.71
2022-12-27T01:09:15.221Z,98920.29
2022-12-27T01:14:22.470Z,98915.85
2022-12-27T01:19:29.803Z,98920.16
2022-12-27T01:24:37.076Z,98917.30
2022-12-27T01:29:44.198Z,98913.92
2022-12-27T01:34:49.858Z,98910.13
2022-12-27T01:42:14.926Z,98896.32
2022-12-27T01:47:25.812Z,98884.95
2022-12-27T01:52:37.303Z,98885.72
2022-12-27T01:57:42.256Z,98896.14
2022-12-27T02:02:46.959Z,98890.70
2022-12-27T02:08:29.727Z,98893.02
2022-12-27T02:13:37.640Z,98898.17
2022-12-27T02:18:42.481Z,98892.66
2022-12-27T02:24:06.338Z,98892.42
2022-12-27T02:29:44.774Z,98902.39
2022-12-27T02:34:57.749Z,98907.38
2022-12-27T02:40:20.502Z,98916.91
2022-12-27T02:45:47.910Z,98928.63
2022-12-27T02:51:16.894Z,98920.70
2022-12-27T02:56:53.471Z,98932.27
2022-12-27T03:02:29.222Z,98942.48
2022-12-27T03:07:39.319Z,98954.49
2022-12-27T03:13:08.651Z,98961.44
2022-12-27T03:18:17.745Z,98978.38
2022-12-27T03:23:40.336Z,98976.38
2022-12-27T03:29:04.936Z,98979.69
2022-12-27T03:34:31.259Z,98994.02
2022-12-27T03:42:04.074Z,99013.28
2022-12-27T03:57:15.717Z,99031.68
2022-12-27T04:02:23.442Z,99043.32
2022-12-27T04:07:31.270Z,99059.13
2022-12-27T04:12:56.395Z,99064.53
2022-12-27T04:18:21.880Z,99069.77
2022-12-27T04:23:47.080Z,99085.22
2022-12-27T04:29:11.662Z,99091.16
2022-12-27T04:34:36.525Z,99102.68
2022-12-27T04:40:04.516Z,99102.73
2022-12-27T04:45:31.327Z,99109.12
2022-12-27T04:50:56.150Z,99120.73
2022-12-27T04:56:04.374Z,99126.38
2022-12-27T05:01:30.296Z,99136.95
2022-12-27T05:06:38.176Z,99152.94
2022-12-27T05:12:14.813Z,99163.44
2022-12-27T05:17:22.022Z,99175.61
2022-12-27T05:22:46.961Z,99193.29
2022-12-27T05:27:54.395Z,99200.30
2022-12-27T05:33:01.705Z,99216.17
2022-12-27T05:38:09.248Z,99223.89
2022-12-27T05:43:16.737Z,99233.36
2022-12-27T05:48:24.147Z,99246.41
2022-12-27T05:53:32.079Z,99255.59
2022-12-27T05:58:39.397Z,99270.85
2022-12-27T06:03:47.320Z,99272.64
2022-12-27T06:08:54.688Z,99299.22
2022-12-27T06:14:02.406Z,99327.11
2022-12-27T06:19:09.737Z,99343.30
2022-12-27T06:24:17.623Z,99375.51
2022-12-27T06:29:25.642Z,99396.38
2022-12-27T06:34:32.901Z,99428.21
2022-12-27T06:39:38.920Z,99449.55
2022-12-27T06:44:46.738Z,99467.13
2022-12-27T06:49:54.015Z,99474.50
2022-12-27T06:55:01.413Z,99489.21
2022-12-27T07:00:13.454Z,99499.95
2022-12-27T07:05:20.952Z,99510.31
2022-12-27T07:10:28.561Z,99536.88
2022-12-27T07:15:35.969Z,99553.30
2022-12-27T07:20:43.783Z,99569.45
2022-12-27T07:25:51.097Z,99580.30
2022-12-27T07:30:58.740Z,99599.06
2022-12-27T07:36:07.969Z,99612.70
2022-12-27T07:41:16.012Z,99614.07
2022-12-27T07:46:25.857Z,99617.29
2022-12-27T07:51:33.138Z,99631.73
2022-12-27T07:56:38.994Z,99636.04
2022-12-27T08:02:04.470Z,99643.78
2022-12-27T08:07:17.929Z,99657.81
2022-12-27T08:12:25.059Z,99675.20
2022-12-27T08:17:32.365Z,99689.67
2022-12-27T08:22:39.677Z,99703.33
2022-12-27T08:27:46.969Z,99715.40
2022-12-27T08:32:54.294Z,99720.88
2022-12-27T08:38:03.963Z,99725.05
2022-12-27T08:43:12.151Z,99730.55
2022-12-27T08:48:19.642Z,99734.53
2022-12-27T08:53:27.061Z,99742.48
2022-12-27T08:58:32.702Z,99759.30
2022-12-27T09:03:40.854Z,99765.63
2022-12-27T09:08:49.371Z,99766.86
2022-12-27T09:13:57.504Z,99762.73
2022-12-27T09:19:05.515Z,99772.27
2022-12-27T09:24:14.387Z,99788.48
2022-12-27T09:29:21.776Z,99798.75
2022-12-27T09:34:29.889Z,99794.39
2022-12-27T09:39:37.772Z,99785.09
2022-12-27T09:44:53.277Z,99789.30
2022-12-27T09:50:05.360Z,99800.80
2022-12-27T09:55:19.179Z,99789.30
2022-12-27T10:00:30.203Z,99794.69
2022-12-27T10:05:46.194Z,99797.67
2022-12-27T10:11:00.345Z,99803.87
2022-12-27T10:16:21.076Z,99797.94
2022-12-27T10:21:31.559Z,99804.55
2022-12-27T10:26:40.776Z,99809.83
2022-12-27T10:31:48.322Z,99806.01
2022-12-27T10:36:56.450Z,99807.17
2022-12-27T10:42:11.476Z,99799.63
2022-12-27T10:47:19.733Z,99798.21
2022-12-27T10:52:36.605Z,99797.63
2022-12-27T10:57:44.160Z,99799.45
2022-12-27T11:02:56.192Z,99794.77
2022-12-27T11:08:22.915Z,99789.80
2022-12-27T11:13:30.309Z,99788.60
2022-12-27T11:18:44.815Z,99784.55
2022-12-27T11:23:54.841Z,99788.48
2022-12-27T11:29:04.126Z,99791.59
2022-12-27T11:34:19.861Z,99790.96
2022-12-27T11:39:43.661Z,99796.44
2022-12-27T11:45:00.697Z,99795.23
2022-12-27T11:50:26.252Z,99798.73
2022-12-27T11:55:56.221Z,99792.60
2022-12-27T12:01:27.953Z,99789.72
2022-12-27T12:06:50.928Z,99785.84
2022-12-27T12:12:28.233Z,99787.53
2022-12-27T12:17:54.956Z,99784.99
2022-12-27T12:23:12.863Z,99787.83
2022-12-27T12:28:57.804Z,99793.75
2022-12-27T12:34:28.674Z,99797.59
2022-12-27T12:39:55.865Z,99804.29
2022-12-27T12:45:19.263Z,99807.79
2022-12-27T12:50:37.670Z,99801.23
2022-12-27T12:56:00.248Z,99799.75
2022-12-27T13:01:31.481Z,99796.65
2022-12-27T13:07:04.773Z,99805.23
2022-12-27T13:12:18.263Z,99805.49
2022-12-27T13:17:34.956Z,99799.98
2022-12-27T13:22:58.049Z,99801.91
2022-12-27T13:28:24.136Z,99803.86
2022-12-27T13:33:40.114Z,99811.88
2022-12-27T13:39:21.438Z,99817.52
2022-12-27T13:44:43.084Z,99820.33
2022-12-27T13:50:18.271Z,99823.71
2022-12-27T13:55:48.555Z,99833.80
2022-12-27T14:01:05.280Z,99834.66
2022-12-27T14:06:47.472Z,99835.00
2022-12-27T14:12:10.147Z,99837.36
2022-12-27T14:17:30.354Z,99842.80
2022-12-27T14:22:57.105Z,99851.80
2022-12-27T14:28:48.977Z,99854.56
2022-12-27T14:34:17.564Z,99860.95
2022-12-27T14:39:44.173Z,99871.84
2022-12-27T14:45:18.348Z,99863.71
2022-12-27T14:50:54.772Z,99867.66
2022-12-27T14:56:15.854Z,99877.72
2022-12-27T15:01:39.565Z,99882.48
2022-12-27T15:07:14.038Z,99881.94
2022-12-27T15:12:32.657Z,99886.33
2022-12-27T15:18:04.040Z,99889.35
2022-12-27T15:23:24.954Z,99891.98
2022-12-27T15:28:42.475Z,99905.66
2022-12-27T15:33:53.280Z,99914.44
2022-12-27T15:39:01.949Z,99914.95
2022-12-27T15:44:43.821Z,99915.81
2022-12-27T15:50:28.026Z,99912.78
2022-12-27T15:55:56.993Z,99905.40
2022-12-27T16:01:31.095Z,99906.83
2022-12-27T16:06:56.553Z,99909.00
2022-12-27T16:12:06.646Z,99914.16
2022-12-27T16:17:24.294Z,99913.67
2022-12-27T16:22:42.653Z,99928.77
2022-12-27T16:27:57.647Z,99954.06
2022-12-27T16:33:05.632Z,99961.20
2022-12-27T16:38:34.136Z,99965.41
2022-12-27T16:43:54.520Z,99967.60
2022-12-27T16:49:23.526Z,99979.94
2022-12-27T16:54:44.678Z,99988.03
2022-12-27T17:00:03.842Z,99990.83
2022-12-27T17:05:41.912Z,99985.65
2022-12-27T17:11:05.009Z,99979.51
2022-12-27T17:16:22.008Z,99984.14
2022-12-27T17:21:33.052Z,99983.23
2022-12-27T17:27:05.031Z,99988.02
2022-12-27T17:32:28.411Z,99991.69
2022-12-27T17:37:46.362Z,99986.61
2022-12-27T17:43:31.069Z,99990.38
2022-12-27T17:48:39.527Z,99993.25
2022-12-27T17:54:08.479Z,99998.67
2022-12-27T17:59:25.005Z,100007.04
2022-12-27T18:04:36.049Z,100011.35
2022-12-27T18:09:48.852Z,100007.77
2022-12-27T18:15:00.425Z,100008.45
2022-12-27T18:20:31.370Z,100010.60
2022-12-27T18:25:49.583Z,100013.55
2022-12-27T18:31:04.543Z,100020.48
2022-12-27T18:36:17.045Z,100023.08
2022-12-27T18:41:25.462Z,100023.64
2022-12-27T18:46:35.425Z,100023.48
2022-12-27T18:51:42.634Z,100027.20
2022-12-27T18:56:51.978Z,100030.21
2022-12-27T19:02:01.047Z,100036.62
2022-12-27T19:07:14.277Z,100040.75
2022-12-27T19:12:29.808Z,100049.73
2022-12-27T19:17:43.567Z,100058.89
2022-12-27T19:22:55.466Z,100067.25
2022-12-27T19:28:24.231Z,100070.81
2022-12-27T19:33:34.421Z,100072.19
2022-12-27T19:38:47.772Z,100071.38
2022-12-27T19:43:56.600Z,100072.18
2022-12-27T19:54:32.278Z,100067.52
2022-12-27T19:59:40.800Z,100068.66
2022-12-27T20:04:50.258Z,100072.23
2022-12-27T20:09:57.474Z,100069.98
2022-12-27T20:15:03.164Z,100074.41
2022-12-27T20:20:13.431Z,100072.40
2022-12-27T20:25:20.706Z,100077.73
2022-12-27T20:30:26.214Z,100079.02
2022-12-27T20:35:33.575Z,100082.61
2022-12-27T20:40:42.715Z,100083.17
2022-12-27T20:45:50.360Z,100097.13
2022-12-27T20:50:57.750Z,100101.80
2022-12-27T20:56:06.374Z,100105.89
2022-12-27T21:01:15.408Z,100109.98
2022-12-27T21:06:25.272Z,100109.84
2022-12-27T21:11:33.970Z,100109.86
2022-12-27T21:16:41.319Z,100106.21
2022-12-27T21:21:48.633Z,100111.83
2022-12-27T21:26:56.606Z,100111.27
2022-12-27T21:32:05.773Z,100112.84
2022-12-27T21:37:13.808Z,100108.44
2022-12-27T21:42:21.105Z,100106.74
2022-12-27T21:47:29.376Z,100109.52
2022-12-27T21:52:36.676Z,100116.53
2022-12-27T21:57:42.273Z,100118.20
2022-12-27T22:02:50.442Z,100112.84
2022-12-27T22:07:59.029Z,100103.02
2022-12-27T22:13:06.440Z,100103.14
2022-12-27T22:18:13.810Z,100100.95
2022-12-27T22:23:19.409Z,100100.86
2022-12-27T22:28:27.010Z,100101.23
2022-12-27T22:33:34.414Z,100099.52
2022-12-27T22:38:46.111Z,100099.48
2022-12-27T22:43:59.383Z,100101.08
2022-12-27T22:49:08.514Z,100100.77
2022-12-27T22:54:15.666Z,100100.06
2022-12-27T22:59:21.272Z,100094.98
2022-12-27T23:04:28.974Z,100088.56
2022-12-27T23:09:42.900Z,100081.89
2022-12-27T23:14:51.161Z,100077.39
2022-12-27T23:19:58.461Z,100076.00
2022-12-27T23:25:04.268Z,100075.92
2022-12-27T23:30:14.204Z,100072.46
2022-12-27T23:35:21.551Z,100075.20
2022-12-27T23:40:28.978Z,100070.86
2022-12-27T23:45:36.323Z,100071.54
2022-12-27T23:50:43.839Z,100072.26
2022-12-27T23:55:59.766Z,100069.76
